map of KAJ home
KAJ - Airport
Location
City:  Kajaani, Kainuu (Kajanaland, Kainuu), Finland
ICAO:EFKI
IATA:KAJ

Details
Type:Airport (Aerodrome, Airfield)
Use:Public/Civil
Latitude:6417'08"N (64.285472)
Longitude:2741'33"E (27.692414)
Datum:WGS 1984
Elevation:483 ft (147 m)
Variation:11.39E (WMM2015 magnetic declination)
0.18 annual change
Runways:1
Longest:8199 × 157 ft (2499 × 48 m), paved

Time
Time Zone:UTC+2 (DST+3)
Local Time:

Weather
METAR:EFKI 290650Z AUTO 29003KT 9999 OVC006 11/09 Q1014

Related Locations
Nearby:
Farthest:NZTB: 11195 mi / 18017 km
Terra Nova Bay [Mario Zucchelli Station], AQ

Find:

   beyond  
but within

Other Information
Maps:
NOTAMs:
Links:
Sources:

  
flag of Finland   

Sectional Chart

Flight Planning
at skyvector.com

Satellite Image

Google Maps Satellite view

 

Copyright © 2004-2017 Karl L. Swartz. All rights reserved.
The Great Circle Mapper name and logo are trademarks of the Great Circle Mapper.
All other trademarks mentioned herein belong to their respective owners.
Please see credits for attibutions and further copyright information.

  Follow gcmap on Facebook Follow gcmap on Twitter Follow gcmap on Google+ GCmap on LinkedIn

hCard Microformat

Geo Microformat